Time;durP1;ratioP1;P1;durP2;ratioP2;P2;SDS_P1;SDS_P2;PMS_P1;PMS_P2;Temp;Humidity;BMP_temperature;BMP_pressure;BME280_temperature;BME280_humidity;BME280_pressure;Samples;Min_cycle;Max_cycle;Signal;HPM_P1;HPM_P2
2023/02/19 00:00:29;;;;;;;23.75;4.03;;;13.00;91.80;;;;;;5044105;28;20425;-58
2023/02/19 00:02:56;;;;;;;20.02;4.15;;;12.90;91.70;;;;;;5043739;28;20041;-58
2023/02/19 00:05:22;;;;;;;17.63;4.15;;;12.90;91.80;;;;;;5045137;28;20025;-58
2023/02/19 00:07:47;;;;;;;17.70;4.03;;;12.90;91.80;;;;;;5043638;28;20079;-58
2023/02/19 00:10:13;;;;;;;23.23;4.45;;;12.90;91.80;;;;;;5043414;28;20116;-58
2023/02/19 00:12:38;;;;;;;19.48;4.03;;;12.90;91.90;;;;;;5043518;28;20061;-58
2023/02/19 00:15:04;;;;;;;21.15;4.72;;;12.90;91.80;;;;;;5044935;28;20030;-57
2023/02/19 00:17:30;;;;;;;21.92;3.67;;;12.90;91.90;;;;;;5045068;28;20052;-58
2023/02/19 00:19:56;;;;;;;16.27;3.95;;;12.80;91.80;;;;;;5043577;28;20170;-58
2023/02/19 00:22:21;;;;;;;18.50;3.65;;;12.80;92.10;;;;;;5042621;28;20430;-58
2023/02/19 00:24:47;;;;;;;21.17;3.97;;;12.80;92.00;;;;;;5043662;28;20030;-58
2023/02/19 00:27:13;;;;;;;21.95;3.70;;;12.80;91.80;;;;;;5044767;28;20029;-57
2023/02/19 00:29:38;;;;;;;15.23;3.33;;;12.80;91.80;;;;;;5043535;28;20422;-58
2023/02/19 00:32:04;;;;;;;15.85;3.63;;;12.70;91.80;;;;;;5043391;28;20033;-58
2023/02/19 00:34:29;;;;;;;14.57;4.05;;;12.80;91.90;;;;;;5043574;28;20025;-58
2023/02/19 00:36:55;;;;;;;13.25;3.72;;;12.70;91.80;;;;;;5044642;28;20053;-58
2023/02/19 00:39:20;;;;;;;16.98;3.80;;;12.70;92.10;;;;;;5043303;28;20056;-58
2023/02/19 00:41:46;;;;;;;15.88;3.70;;;12.70;91.80;;;;;;5043415;28;20052;-58
2023/02/19 00:44:12;;;;;;;12.93;3.30;;;12.70;91.90;;;;;;5044841;28;20124;-58
2023/02/19 00:46:43;;;;;;;14.27;3.30;;;12.70;91.90;;;;;;5043214;28;20037;-58
2023/02/19 00:49:18;;;;;;;11.23;3.38;;;12.70;91.90;;;;;;5043180;28;20098;-58
2023/02/19 00:51:44;;;;;;;20.17;3.72;;;12.70;91.90;;;;;;5026885;28;20469;-58
2023/02/19 00:54:09;;;;;;;17.10;3.55;;;12.60;91.90;;;;;;5043564;28;20041;-58
2023/02/19 00:56:35;;;;;;;14.98;3.85;;;12.60;91.90;;;;;;5043291;28;20148;-58
2023/02/19 00:59:00;;;;;;;12.13;3.40;;;12.60;91.90;;;;;;5044648;28;20144;-58
2023/02/19 01:01:26;;;;;;;19.25;3.22;;;12.60;92.00;;;;;;5044539;28;20029;-58
2023/02/19 01:03:51;;;;;;;12.25;3.22;;;12.60;92.00;;;;;;5043179;28;20043;-58
2023/02/19 01:06:17;;;;;;;12.60;3.22;;;12.60;92.00;;;;;;5044580;28;20025;-58
2023/02/19 01:08:43;;;;;;;18.73;3.55;;;12.60;92.00;;;;;;5043166;28;20034;-58
2023/02/19 01:11:09;;;;;;;7.38;2.45;;;12.50;92.00;;;;;;5043010;28;20030;-58
2023/02/19 01:13:34;;;;;;;15.98;3.40;;;12.50;92.00;;;;;;5042885;28;20044;-58
2023/02/19 01:16:03;;;;;;;13.27;3.30;;;12.50;92.00;;;;;;5043037;28;20021;-58
2023/02/19 01:18:29;;;;;;;14.75;3.28;;;12.50;92.10;;;;;;5059481;28;20128;-58
2023/02/19 01:20:55;;;;;;;13.13;2.97;;;12.50;92.10;;;;;;5043175;28;20026;-58
2023/02/19 01:23:20;;;;;;;15.93;3.20;;;12.50;92.10;;;;;;5044288;28;20075;-58
2023/02/19 01:25:46;;;;;;;16.75;3.20;;;12.50;92.10;;;;;;5043161;28;20096;-58
2023/02/19 01:28:11;;;;;;;9.68;2.83;;;12.40;92.10;;;;;;5042792;28;20071;-58
2023/02/19 01:30:38;;;;;;;9.65;3.22;;;12.40;92.10;;;;;;5042978;28;20104;-57
2023/02/19 01:33:04;;;;;;;13.00;3.13;;;12.40;92.10;;;;;;5044383;28;20033;-58
2023/02/19 01:35:30;;;;;;;14.18;3.13;;;12.40;92.10;;;;;;5046703;28;20082;-58
2023/02/19 01:37:55;;;;;;;12.43;3.00;;;12.40;92.10;;;;;;5046664;28;20033;-58
2023/02/19 01:40:21;;;;;;;12.35;3.00;;;12.40;92.10;;;;;;5046505;28;20052;-58
2023/02/19 01:42:47;;;;;;;13.13;3.35;;;12.40;92.20;;;;;;5046491;28;20038;-58
2023/02/19 01:45:23;;;;;;;8.95;2.95;;;12.40;92.20;;;;;;5047855;28;20056;-57
2023/02/19 01:47:54;;;;;;;11.13;3.40;;;12.30;92.20;;;;;;5046260;28;20033;-58
2023/02/19 01:50:20;;;;;;;8.82;2.72;;;12.30;92.20;;;;;;5046396;28;20035;-58
2023/02/19 01:52:45;;;;;;;9.57;3.03;;;12.30;92.10;;;;;;5047631;28;20037;-58
2023/02/19 01:55:11;;;;;;;9.60;2.85;;;12.30;92.20;;;;;;5046278;28;20033;-57
2023/02/19 01:57:40;;;;;;;9.43;2.83;;;12.30;92.20;;;;;;5046134;28;20033;-58
2023/02/19 02:00:08;;;;;;;11.93;2.80;;;12.30;92.20;;;;;;5046314;28;20087;-58
2023/02/19 02:02:34;;;;;;;8.23;2.47;;;12.30;92.20;;;;;;5045891;28;20409;-57
2023/02/19 02:04:59;;;;;;;11.85;3.30;;;12.20;92.20;;;;;;5046217;28;20085;-57
2023/02/19 02:10:21;;;;;;;11.02;2.92;;;12.20;92.20;;;;;;5047386;28;20056;-57
2023/02/19 02:12:48;;;;;;;9.55;2.47;;;12.20;92.20;;;;;;5045732;28;20042;-58
2023/02/19 02:15:15;;;;;;;12.43;2.58;;;12.20;92.20;;;;;;5046071;28;20021;-58
2023/02/19 02:18:13;;;;;;;8.05;2.90;;;12.20;92.20;;;;;;5045842;28;20049;-57
2023/02/19 02:20:56;;;;;;;8.18;2.13;;;12.10;92.20;;;;;;5045875;28;20105;-58
2023/02/19 02:23:27;;;;;;;7.22;2.40;;;12.10;92.30;;;;;;5045826;28;20151;-58
2023/02/19 02:26:15;;;;;;;7.97;2.72;;;12.10;92.30;;;;;;5046117;28;20045;-58
2023/02/19 02:29:08;;;;;;;7.75;2.45;;;12.10;92.30;;;;;;5045868;28;20044;-58
2023/02/19 02:31:40;;;;;;;6.65;2.40;;;12.10;92.30;;;;;;5047179;28;20026;-58
2023/02/19 02:34:05;;;;;;;7.03;2.67;;;12.10;92.40;;;;;;5045536;28;20109;-57
2023/02/19 02:36:36;;;;;;;9.13;2.75;;;12.10;92.40;;;;;;5046916;28;20125;-58
2023/02/19 02:39:04;;;;;;;7.07;2.50;;;12.10;92.30;;;;;;5045400;28;20026;-57
2023/02/19 02:41:29;;;;;;;5.90;2.78;;;12.10;92.30;;;;;;5045287;28;20028;-58
2023/02/19 02:43:55;;;;;;;6.78;2.60;;;12.00;92.30;;;;;;5045140;28;20064;-58
2023/02/19 02:46:27;;;;;;;9.02;2.63;;;12.00;92.30;;;;;;5044359;28;20040;-58
2023/02/19 02:48:56;;;;;;;6.50;2.60;;;12.00;92.30;;;;;;5045576;28;20052;-58
2023/02/19 02:51:25;;;;;;;10.55;2.58;;;12.00;92.30;;;;;;5045398;28;20034;-58
2023/02/19 02:56:56;;;;;;;7.40;2.30;;;12.00;92.40;;;;;;5045728;28;20032;-57
2023/02/19 02:59:24;;;;;;;7.53;2.63;;;11.90;92.40;;;;;;5045554;28;20080;-57
2023/02/19 03:07:55;;;;;;;6.68;2.30;;;11.90;92.40;;;;;;5045211;28;20060;-57
2023/02/19 03:10:27;;;;;;;12.10;2.47;;;11.90;92.40;;;;;;5045002;28;20116;-58
2023/02/19 03:21:15;;;;;;;6.03;2.38;;;11.90;92.30;;;;;;5044871;28;20043;-58
2023/02/19 03:26:35;;;;;;;6.00;2.28;;;11.80;92.30;;;;;;5026407;28;20040;-57
2023/02/19 03:31:44;;;;;;;7.18;2.15;;;11.80;92.40;;;;;;5044552;28;20037;-57
2023/02/19 03:34:13;;;;;;;5.82;2.72;;;11.80;92.40;;;;;;5044209;28;20025;-57
2023/02/19 03:36:43;;;;;;;6.80;2.20;;;11.80;92.40;;;;;;5044423;28;20032;-58
2023/02/19 03:39:08;;;;;;;10.55;2.50;;;11.80;92.40;;;;;;5044265;28;20036;-58
2023/02/19 03:41:48;;;;;;;5.72;2.25;;;11.80;92.40;;;;;;5044358;28;20025;-57
2023/02/19 03:44:48;;;;;;;7.15;2.50;;;11.80;92.40;;;;;;5044263;28;20033;-58
2023/02/19 03:47:19;;;;;;;8.90;2.05;;;11.80;92.40;;;;;;5043991;28;20030;-58
2023/02/19 03:49:58;;;;;;;3.75;2.20;;;11.80;92.40;;;;;;5044177;28;20037;-57
2023/02/19 03:52:27;;;;;;;5.32;2.30;;;11.80;92.40;;;;;;5043771;28;20036;-58
2023/02/19 03:55:08;;;;;;;4.60;2.20;;;11.70;92.40;;;;;;5045281;28;20049;-58
2023/02/19 03:57:48;;;;;;;5.45;2.15;;;11.70;92.40;;;;;;5043754;28;20075;-58
2023/02/19 04:00:30;;;;;;;7.05;2.30;;;11.70;92.50;;;;;;5045308;28;20147;-58
2023/02/19 04:03:05;;;;;;;4.53;2.20;;;11.70;92.40;;;;;;5043807;28;20084;-58
2023/02/19 04:05:32;;;;;;;7.25;2.42;;;11.70;92.40;;;;;;5027290;28;20097;-57
2023/02/19 04:07:59;;;;;;;5.93;2.20;;;11.70;92.30;;;;;;5043853;28;20052;-57
2023/02/19 04:10:25;;;;;;;5.53;2.70;;;11.70;92.40;;;;;;5043944;28;20118;-58
2023/02/19 04:12:54;;;;;;;10.80;2.28;;;11.70;92.30;;;;;;5043628;28;20029;-58
2023/02/19 04:15:22;;;;;;;6.47;2.25;;;11.60;92.60;;;;;;5043599;28;20036;-57
2023/02/19 04:18:05;;;;;;;4.47;1.90;;;11.70;92.40;;;;;;5043657;28;20032;-57
2023/02/19 04:20:33;;;;;;;4.22;2.00;;;11.60;92.40;;;;;;5043885;28;20469;-58
2023/02/19 04:22:58;;;;;;;3.25;2.03;;;11.70;92.40;;;;;;5043627;28;20052;-58
2023/02/19 04:25:24;;;;;;;2.92;2.00;;;11.60;92.40;;;;;;5043789;28;20199;-58
2023/02/19 04:27:50;;;;;;;4.95;2.30;;;11.60;92.40;;;;;;5043523;28;20064;-58
2023/02/19 04:30:15;;;;;;;4.13;2.40;;;11.60;92.50;;;;;;5043686;28;20045;-58
2023/02/19 04:32:41;;;;;;;5.45;2.05;;;11.60;92.50;;;;;;5044741;28;20128;-58
2023/02/19 04:35:06;;;;;;;3.72;1.95;;;11.60;92.50;;;;;;5043548;28;20048;-58
2023/02/19 04:37:32;;;;;;;3.50;2.13;;;11.60;92.50;;;;;;5045020;28;20086;-58
2023/02/19 04:39:58;;;;;;;4.88;2.00;;;11.60;92.50;;;;;;5043498;28;20076;-58
2023/02/19 04:42:23;;;;;;;4.22;2.08;;;11.60;92.50;;;;;;5043538;28;20032;-58
2023/02/19 04:44:49;;;;;;;3.20;1.80;;;11.60;92.50;;;;;;5043096;28;20104;-58
2023/02/19 04:47:16;;;;;;;3.65;2.35;;;11.60;92.50;;;;;;5044518;28;20033;-57
2023/02/19 04:49:42;;;;;;;5.88;2.28;;;11.50;92.50;;;;;;5043577;28;20030;-57
2023/02/19 04:52:08;;;;;;;5.57;2.15;;;11.50;92.50;;;;;;5043261;28;20023;-58
2023/02/19 04:54:33;;;;;;;4.43;1.83;;;11.50;92.50;;;;;;5043292;28;20410;-57
2023/02/19 04:56:59;;;;;;;4.53;2.10;;;11.50;92.50;;;;;;5043036;28;20048;-57
2023/02/19 04:59:25;;;;;;;4.32;2.30;;;11.50;92.50;;;;;;5044543;28;20078;-58
2023/02/19 05:01:50;;;;;;;8.20;2.13;;;11.50;92.50;;;;;;5043428;28;20021;-58
2023/02/19 05:04:16;;;;;;;3.92;1.88;;;11.50;92.60;;;;;;5044585;28;20363;-58
2023/02/19 05:06:41;;;;;;;4.03;2.35;;;11.50;92.60;;;;;;5043242;28;20105;-58
2023/02/19 05:09:07;;;;;;;8.88;2.30;;;11.50;92.60;;;;;;5046483;28;20409;-59
2023/02/19 05:11:33;;;;;;;4.68;2.20;;;11.50;92.60;;;;;;5030415;28;20029;-58
2023/02/19 05:13:58;;;;;;;4.00;1.90;;;11.50;92.60;;;;;;5048360;28;20048;-58
2023/02/19 05:16:24;;;;;;;5.38;2.28;;;11.50;92.60;;;;;;5046884;28;20025;-58
2023/02/19 05:18:49;;;;;;;2.38;1.90;;;11.50;92.60;;;;;;5063592;28;20545;-58
2023/02/19 05:21:15;;;;;;;3.25;2.00;;;11.50;92.60;;;;;;5048290;28;20048;-58
2023/02/19 05:23:41;;;;;;;4.60;2.10;;;11.40;92.60;;;;;;5046965;28;20470;-58
2023/02/19 05:26:12;;;;;;;3.28;2.30;;;11.40;92.60;;;;;;5047981;28;20072;-58
2023/02/19 05:28:38;;;;;;;3.47;1.80;;;11.40;92.70;;;;;;5046589;28;20093;-58
2023/02/19 05:31:07;;;;;;;5.40;2.25;;;11.40;92.70;;;;;;5030008;28;20076;-58
2023/02/19 05:33:33;;;;;;;2.47;2.05;;;11.40;92.70;;;;;;5046673;28;20089;-58
2023/02/19 05:35:58;;;;;;;2.58;1.75;;;11.40;92.70;;;;;;5063332;28;20429;-57
2023/02/19 05:38:24;;;;;;;7.13;2.13;;;11.40;92.70;;;;;;5046472;28;20059;-58
2023/02/19 05:40:50;;;;;;;6.20;2.38;;;11.40;92.80;;;;;;5046582;28;20048;-58
2023/02/19 05:43:15;;;;;;;4.35;2.10;;;11.40;92.70;;;;;;5062990;28;20042;-58
2023/02/19 05:45:41;;;;;;;3.42;2.10;;;11.40;92.70;;;;;;5047723;28;20029;-58
2023/02/19 05:48:07;;;;;;;3.72;1.92;;;11.40;92.80;;;;;;5047483;28;20049;-58
2023/02/19 05:50:34;;;;;;;5.32;2.60;;;11.40;92.80;;;;;;5046144;28;20021;-58
2023/02/19 05:53:00;;;;;;;2.53;2.10;;;11.30;92.70;;;;;;5045892;28;20041;-58
2023/02/19 05:55:27;;;;;;;3.25;1.92;;;11.30;92.80;;;;;;5029942;28;20085;-58
2023/02/19 05:57:53;;;;;;;3.95;2.25;;;11.30;92.80;;;;;;5046099;28;20032;-58
2023/02/19 06:00:18;;;;;;;4.38;2.10;;;11.30;92.80;;;;;;5047530;28;20029;-58
2023/02/19 06:02:44;;;;;;;3.20;2.00;;;11.30;92.80;;;;;;5047558;28;20096;-58
2023/02/19 06:05:09;;;;;;;4.15;2.47;;;11.30;92.90;;;;;;5046237;28;20036;-58
2023/02/19 06:07:35;;;;;;;3.72;2.35;;;11.30;92.90;;;;;;5045983;28;20061;-58
2023/02/19 06:10:01;;;;;;;4.00;2.35;;;11.30;92.90;;;;;;5045969;28;20089;-57
2023/02/19 06:12:26;;;;;;;3.88;2.25;;;11.30;93.00;;;;;;5045899;28;20033;-58
2023/02/19 06:14:52;;;;;;;3.55;2.28;;;11.30;93.00;;;;;;5046014;28;20037;-58
2023/02/19 06:17:17;;;;;;;2.58;1.90;;;11.30;93.00;;;;;;5047211;28;20033;-58
2023/02/19 06:19:43;;;;;;;4.55;2.10;;;11.30;93.00;;;;;;5045739;28;20036;-58
2023/02/19 06:22:09;;;;;;;3.50;2.13;;;11.20;93.00;;;;;;5047046;28;20029;-58
2023/02/19 06:24:36;;;;;;;3.50;1.92;;;11.30;93.00;;;;;;5029260;28;20083;-58
2023/02/19 06:27:04;;;;;;;2.55;1.85;;;11.30;93.10;;;;;;5045892;28;20048;-57
2023/02/19 06:29:31;;;;;;;4.10;2.13;;;11.30;93.10;;;;;;5045727;28;20033;-58
2023/02/19 06:31:57;;;;;;;4.38;2.03;;;11.30;93.10;;;;;;5045600;28;20045;-58
2023/02/19 06:34:22;;;;;;;2.85;2.25;;;11.20;93.10;;;;;;5046821;28;20021;-58
2023/02/19 06:36:48;;;;;;;3.78;1.92;;;11.30;93.20;;;;;;5045780;28;20044;-58
2023/02/19 06:39:14;;;;;;;5.78;2.40;;;11.30;93.20;;;;;;5045701;28;20056;-58
2023/02/19 06:41:39;;;;;;;6.28;1.75;;;11.20;93.20;;;;;;5044829;28;20021;-58
2023/02/19 06:44:05;;;;;;;3.83;1.85;;;11.30;93.20;;;;;;5047425;28;20037;-58
2023/02/19 06:46:30;;;;;;;3.92;2.20;;;11.30;93.20;;;;;;5045608;28;20037;-58
2023/02/19 06:48:56;;;;;;;3.80;2.20;;;11.20;93.20;;;;;;5045010;28;20592;-58
2023/02/19 06:51:23;;;;;;;3.85;2.28;;;11.30;93.30;;;;;;5045243;28;20024;-58
2023/02/19 06:53:48;;;;;;;6.10;1.92;;;11.30;93.20;;;;;;5045321;28;20033;-58
2023/02/19 06:56:25;;;;;;;5.30;2.08;;;11.30;93.20;;;;;;5045005;28;20167;-58
2023/02/19 06:58:54;;;;;;;3.70;1.88;;;11.30;93.20;;;;;;5046442;28;20105;-58
2023/02/19 07:01:20;;;;;;;5.15;2.10;;;11.30;93.20;;;;;;5045690;28;20095;-58
2023/02/19 07:03:46;;;;;;;3.72;2.10;;;11.30;93.10;;;;;;5046321;28;20064;-58
2023/02/19 07:06:11;;;;;;;5.50;2.58;;;11.30;93.10;;;;;;5044956;28;20029;-58
2023/02/19 07:08:37;;;;;;;4.65;1.77;;;11.30;93.10;;;;;;5045052;28;20037;-58
2023/02/19 07:11:03;;;;;;;2.67;1.83;;;11.30;93.10;;;;;;5046115;28;20041;-58
2023/02/19 07:13:28;;;;;;;4.40;2.13;;;11.30;93.10;;;;;;5046199;28;20026;-58
2023/02/19 07:15:58;;;;;;;7.18;2.50;;;11.30;93.10;;;;;;5046161;28;20101;-58
2023/02/19 07:18:23;;;;;;;4.38;2.08;;;11.30;93.10;;;;;;5044722;28;20045;-58
2023/02/19 07:20:49;;;;;;;4.38;2.20;;;11.30;93.10;;;;;;5061236;28;20026;-58
2023/02/19 07:23:14;;;;;;;5.35;1.77;;;11.30;93.10;;;;;;5061163;28;20542;-58
2023/02/19 07:25:40;;;;;;;3.25;1.95;;;11.30;93.10;;;;;;5044579;28;20040;-58
2023/02/19 07:28:06;;;;;;;3.95;1.83;;;11.30;93.10;;;;;;5044346;28;20439;-58
2023/02/19 07:30:31;;;;;;;6.43;2.10;;;11.30;93.10;;;;;;5027785;28;20029;-58
2023/02/19 07:32:57;;;;;;;2.88;2.28;;;11.30;93.10;;;;;;5045239;28;20045;-57
2023/02/19 07:35:22;;;;;;;4.35;2.05;;;11.30;93.10;;;;;;5045612;28;20033;-58
2023/02/19 07:37:48;;;;;;;3.65;2.15;;;11.30;93.40;;;;;;5045809;28;20026;-58
2023/02/19 07:40:14;;;;;;;6.10;2.13;;;11.30;93.10;;;;;;5044310;28;20028;-58
2023/02/19 07:42:39;;;;;;;4.07;2.28;;;11.30;93.10;;;;;;5045540;28;20038;-58
2023/02/19 07:45:05;;;;;;;2.95;2.10;;;11.30;93.10;;;;;;5044297;28;20041;-57
2023/02/19 07:47:30;;;;;;;2.95;2.42;;;11.30;93.10;;;;;;5043979;28;20120;-58
2023/02/19 07:49:56;;;;;;;3.17;2.08;;;11.30;93.10;;;;;;5044139;28;20044;-58
2023/02/19 07:52:22;;;;;;;1.98;1.70;;;11.30;93.10;;;;;;5044055;28;20040;-58
2023/02/19 07:54:47;;;;;;;4.00;2.20;;;11.30;93.10;;;;;;5044082;28;20022;-58
2023/02/19 07:57:13;;;;;;;2.63;1.75;;;11.30;93.00;;;;;;5044082;28;20161;-58
2023/02/19 07:59:39;;;;;;;5.00;2.00;;;11.30;93.00;;;;;;5027854;28;20064;-57
2023/02/19 08:05:02;;;;;;;3.78;2.08;;;11.30;93.00;;;;;;5043993;28;20033;-58
2023/02/19 08:07:34;;;;;;;2.67;1.88;;;11.40;93.00;;;;;;5043899;28;20033;-58
2023/02/19 08:13:18;;;;;;;3.40;1.92;;;11.40;93.00;;;;;;5045093;28;20025;-58
2023/02/19 08:15:29;;;;;;;5.53;2.28;;;11.40;93.00;;;;;;5043888;28;20044;-58
2023/02/19 08:17:54;;;;;;;3.92;1.73;;;11.40;92.90;;;;;;5045153;28;20033;-57
2023/02/19 08:20:20;;;;;;;4.95;2.25;;;11.40;92.90;;;;;;5043542;28;20056;-58
2023/02/19 08:22:45;;;;;;;2.40;1.88;;;11.40;92.90;;;;;;5043500;28;20473;-58
2023/02/19 08:25:11;;;;;;;3.95;1.88;;;11.40;92.90;;;;;;5044694;28;20025;-58
2023/02/19 08:27:36;;;;;;;3.30;1.80;;;11.40;92.90;;;;;;5044765;28;20037;-58
2023/02/19 08:30:03;;;;;;;2.45;1.92;;;11.40;92.80;;;;;;5060041;28;20669;-58
2023/02/19 08:32:28;;;;;;;2.78;1.90;;;11.50;92.90;;;;;;5044659;28;20034;-58
2023/02/19 08:34:54;;;;;;;3.60;1.67;;;11.40;92.80;;;;;;5043345;28;20033;-58
2023/02/19 08:37:19;;;;;;;3.17;2.05;;;11.50;92.90;;;;;;5044711;28;20029;-58
2023/02/19 08:39:45;;;;;;;2.60;1.92;;;11.50;92.80;;;;;;5044544;28;20083;-58
2023/02/19 08:42:10;;;;;;;2.25;1.73;;;11.50;92.90;;;;;;5059867;28;20091;-58
2023/02/19 08:44:36;;;;;;;3.03;1.70;;;11.40;92.80;;;;;;5047548;28;20029;-58
2023/02/19 08:47:03;;;;;;;2.83;2.00;;;11.50;92.80;;;;;;5048707;28;20145;-58
2023/02/19 08:49:29;;;;;;;2.33;1.88;;;11.50;92.80;;;;;;5049002;28;20060;-58
2023/02/19 08:51:54;;;;;;;2.40;1.70;;;11.50;92.80;;;;;;5048542;28;20457;-58
2023/02/19 08:54:20;;;;;;;2.75;1.60;;;11.50;92.80;;;;;;5047439;28;20040;-58
2023/02/19 08:56:46;;;;;;;2.08;1.70;;;11.50;92.80;;;;;;5048931;28;20029;-58
2023/02/19 08:59:11;;;;;;;3.80;1.88;;;11.50;92.70;;;;;;5047486;28;20025;-58
2023/02/19 09:01:37;;;;;;;2.67;1.67;;;11.60;92.70;;;;;;5047413;28;20049;-58
2023/02/19 09:04:02;;;;;;;2.72;1.88;;;11.60;92.70;;;;;;5046517;28;20029;-58
2023/02/19 09:06:28;;;;;;;2.72;1.52;;;11.60;92.80;;;;;;5029550;28;20084;-58
2023/02/19 09:08:53;;;;;;;2.35;1.70;;;11.60;92.70;;;;;;5045587;28;20026;-58
2023/02/19 09:11:19;;;;;;;2.63;2.00;;;11.60;92.70;;;;;;5046244;28;20048;-58
2023/02/19 09:13:44;;;;;;;2.67;1.40;;;11.60;92.70;;;;;;5047057;28;20097;-58
2023/02/19 09:16:10;;;;;;;2.03;1.67;;;11.60;92.70;;;;;;5047757;28;20028;-58
2023/02/19 09:18:35;;;;;;;2.97;1.60;;;11.60;92.60;;;;;;5046527;28;20057;-58
2023/02/19 09:21:03;;;;;;;2.17;1.50;;;11.70;92.60;;;;;;5030123;28;20513;-58
2023/02/19 09:23:29;;;;;;;3.60;1.80;;;11.60;92.50;;;;;;5047922;28;20029;-58
2023/02/19 09:26:02;;;;;;;3.10;1.73;;;11.70;92.50;;;;;;5002024;28;20079;-58
2023/02/19 09:28:27;;;;;;;3.03;2.05;;;11.70;92.50;;;;;;5035769;28;20044;-58
2023/02/19 09:30:53;;;;;;;5.60;1.95;;;11.70;92.40;;;;;;5046790;28;20017;-58
2023/02/19 09:33:18;;;;;;;7.55;2.05;;;11.70;92.40;;;;;;5029585;28;20037;-58
2023/02/19 09:35:44;;;;;;;3.92;2.08;;;11.70;92.80;;;;;;5046385;28;20117;-58
2023/02/19 09:38:09;;;;;;;7.05;2.50;;;11.80;92.60;;;;;;5046361;28;20041;-57
2023/02/19 09:40:36;;;;;;;4.50;1.58;;;11.80;92.60;;;;;;5046726;28;20108;-58
2023/02/19 09:43:05;;;;;;;2.20;1.60;;;11.80;92.50;;;;;;5028514;28;20057;-58
2023/02/19 09:45:30;;;;;;;21.17;3.83;;;11.80;92.40;;;;;;5043040;28;20025;-58
2023/02/19 09:47:56;;;;;;;13.60;2.97;;;11.80;92.50;;;;;;5045287;28;20128;-56
2023/02/19 09:50:25;;;;;;;41.20;5.00;;;11.90;92.60;;;;;;5029858;28;20034;-55
2023/02/19 09:52:53;;;;;;;22.63;4.13;;;11.90;92.80;;;;;;5028276;28;20463;-56
2023/02/19 09:55:22;;;;;;;25.05;3.17;;;11.90;92.80;;;;;;5042324;28;20114;-56
2023/02/19 09:57:47;;;;;;;20.27;3.80;;;11.90;92.70;;;;;;5046911;28;20051;-55
2023/02/19 10:00:28;;;;;;;28.63;4.45;;;12.00;92.70;;;;;;5044593;28;20033;-56
2023/02/19 10:03:20;;;;;;;30.77;4.88;;;12.10;92.70;;;;;;5026599;28;20037;-56
2023/02/19 10:05:45;;;;;;;53.28;6.28;;;12.00;93.00;;;;;;5011877;28;20097;-56
2023/02/19 10:08:13;;;;;;;53.53;7.10;;;12.10;92.80;;;;;;5026038;28;20026;-55
2023/02/19 10:10:40;;;;;;;53.10;7.43;;;12.10;92.80;;;;;;5017683;28;20029;-56
2023/02/19 10:13:35;;;;;;;63.30;7.57;;;12.10;93.20;;;;;;5012287;28;20034;-56
2023/02/19 10:16:03;;;;;;;77.68;8.75;;;12.10;92.80;;;;;;5044008;28;20121;-54
2023/02/19 10:18:38;;;;;;;71.35;8.48;;;12.20;92.90;;;;;;5042805;28;20033;-54
2023/02/19 10:21:04;;;;;;;85.50;8.82;;;12.20;93.00;;;;;;5042277;28;20076;-55
2023/02/19 10:23:29;;;;;;;63.08;8.60;;;12.20;93.00;;;;;;5043476;28;20033;-58
2023/02/19 10:25:56;;;;;;;82.13;9.35;;;12.30;93.10;;;;;;5041727;28;20029;-57
2023/02/19 10:28:27;;;;;;;82.97;9.95;;;12.30;93.20;;;;;;5044242;28;20044;-57
2023/02/19 10:30:55;;;;;;;67.18;9.75;;;12.40;93.30;;;;;;5026098;28;20029;-58
2023/02/19 10:33:20;;;;;;;78.18;9.02;;;12.40;93.30;;;;;;5041530;28;20068;-58
2023/02/19 10:36:03;;;;;;;68.57;9.02;;;12.40;93.30;;;;;;5027638;28;20049;-58
2023/02/19 10:38:37;;;;;;;111.35;10.43;;;12.50;93.40;;;;;;5028230;28;20540;-57
2023/02/19 10:41:22;;;;;;;103.88;11.65;;;12.50;93.40;;;;;;5044026;28;20021;-55
2023/02/19 10:43:51;;;;;;;98.47;10.60;;;12.50;93.50;;;;;;5023752;28;20040;-55
2023/02/19 10:46:19;;;;;;;127.53;11.75;;;12.60;93.70;;;;;;5056904;28;20036;-54
2023/02/19 10:49:29;;;;;;;155.10;16.60;;;12.60;93.70;;;;;;5042667;28;20052;-55
2023/02/19 10:51:56;;;;;;;86.60;8.63;;;12.60;93.70;;;;;;5033431;28;20034;-55
2023/02/19 10:54:34;;;;;;;67.40;9.05;;;12.60;93.60;;;;;;5042343;28;20419;-56
2023/02/19 10:57:31;;;;;;;134.27;13.73;;;12.70;93.40;;;;;;5042048;28;20029;-55
2023/02/19 11:00:15;;;;;;;222.73;21.27;;;12.70;93.60;;;;;;5022694;28;20057;-55
2023/02/19 11:02:42;;;;;;;173.00;17.58;;;12.80;93.90;;;;;;5042488;28;20060;-55
2023/02/19 11:05:16;;;;;;;139.50;13.10;;;12.80;93.80;;;;;;5043658;28;20040;-55
2023/02/19 11:07:44;;;;;;;143.65;16.73;;;12.80;93.80;;;;;;5043809;28;20071;-55
2023/02/19 11:10:37;;;;;;;156.32;15.15;;;12.80;93.90;;;;;;5033510;28;20053;-55
2023/02/19 11:13:03;;;;;;;239.02;21.80;;;12.90;94.10;;;;;;5040302;28;20037;-55
2023/02/19 11:15:34;;;;;;;107.10;13.05;;;12.90;93.90;;;;;;5025683;28;20026;-55
2023/02/19 11:18:17;;;;;;;103.53;11.80;;;12.90;93.80;;;;;;5022188;28;20030;-55
2023/02/19 11:20:53;;;;;;;209.30;20.60;;;12.90;93.70;;;;;;5035873;28;20032;-55
2023/02/19 11:23:27;;;;;;;136.40;14.57;;;12.90;93.80;;;;;;5027638;28;20038;-55
2023/02/19 11:25:53;;;;;;;138.20;16.33;;;13.00;93.80;;;;;;5026137;28;20414;-55
2023/02/19 11:28:37;;;;;;;114.30;13.85;;;13.00;93.80;;;;;;5035815;28;20038;-55
2023/02/19 11:31:18;;;;;;;143.10;17.52;;;13.00;93.80;;;;;;5065147;28;20033;-55
2023/02/19 11:34:13;;;;;;;119.47;13.90;;;13.10;93.80;;;;;;5050612;28;20469;-55
2023/02/19 11:36:38;;;;;;;133.50;15.25;;;13.10;93.80;;;;;;5026038;28;20179;-55
2023/02/19 11:39:16;;;;;;;159.98;15.25;;;13.10;93.80;;;;;;5042686;28;20063;-55
2023/02/19 11:41:53;;;;;;;99.90;11.93;;;13.10;93.70;;;;;;5037647;28;20120;-55
2023/02/19 11:44:43;;;;;;;127.05;12.35;;;13.10;93.90;;;;;;5041502;28;20124;-55
2023/02/19 11:47:47;;;;;;;182.80;18.52;;;13.10;93.40;;;;;;5032815;28;20028;-55
2023/02/19 11:50:43;;;;;;;115.90;13.57;;;13.10;93.40;;;;;;5040226;28;20026;-55
2023/02/19 11:53:27;;;;;;;135.63;12.13;;;13.10;93.30;;;;;;5038628;28;20052;-55
2023/02/19 11:56:08;;;;;;;136.52;14.25;;;13.10;93.20;;;;;;5040301;28;20091;-55
2023/02/19 11:59:10;;;;;;;136.07;14.07;;;13.20;93.30;;;;;;5044100;28;20063;-55
2023/02/19 12:01:37;;;;;;;170.38;18.25;;;13.20;93.20;;;;;;5023663;28;20053;-55
2023/02/19 12:04:30;;;;;;;119.32;13.98;;;13.20;93.40;;;;;;5042603;28;20522;-55
2023/02/19 12:07:17;;;;;;;136.57;14.18;;;13.20;93.30;;;;;;5025909;28;20037;-55
2023/02/19 12:09:59;;;;;;;117.35;13.05;;;13.20;93.10;;;;;;5045320;28;20042;-55
2023/02/19 12:12:50;;;;;;;110.68;12.77;;;13.20;93.10;;;;;;5048393;28;20043;-55
2023/02/19 12:15:57;;;;;;;144.93;16.75;;;13.20;92.90;;;;;;5019785;28;20038;-55
2023/02/19 12:18:42;;;;;;;;;;;13.20;92.90;;;;;;5023175;28;20114;-55
2023/02/19 12:21:35;;;;;;;131.57;13.38;;;13.30;93.00;;;;;;5037931;28;19963;-55
2023/02/19 12:24:23;;;;;;;91.57;11.07;;;13.30;92.90;;;;;;5043652;28;20025;-55
2023/02/19 12:27:23;;;;;;;112.13;10.77;;;13.30;92.70;;;;;;5024066;28;20034;-55
2023/02/19 12:30:16;;;;;;;95.45;12.95;;;13.30;92.40;;;;;;5025274;28;20038;-55
2023/02/19 12:32:48;;;;;;;118.90;13.25;;;13.30;92.70;;;;;;5039808;28;20021;-55
2023/02/19 12:35:27;;;;;;;137.30;14.27;;;13.30;92.80;;;;;;5043704;28;20037;-56
2023/02/19 12:38:02;;;;;;;128.60;13.20;;;13.40;92.90;;;;;;5043247;28;20463;-55
2023/02/19 12:40:34;;;;;;;120.53;12.43;;;13.30;92.70;;;;;;5042001;28;20038;-55
2023/02/19 12:43:11;;;;;;;118.40;12.27;;;13.40;92.40;;;;;;5040316;28;20287;-55
2023/02/19 12:45:37;;;;;;;117.28;11.90;;;13.50;92.30;;;;;;5043099;28;20401;-55
2023/02/19 12:48:09;;;;;;;132.15;14.10;;;13.40;92.30;;;;;;5033758;28;20060;-55
2023/02/19 12:50:35;;;;;;;129.32;13.60;;;13.50;92.30;;;;;;5040344;28;20097;-55
2023/02/19 12:53:06;;;;;;;154.05;15.75;;;13.50;92.20;;;;;;5040493;28;20029;-55
2023/02/19 12:55:38;;;;;;;161.20;14.60;;;13.50;92.20;;;;;;5042113;28;20025;-55
2023/02/19 12:58:04;;;;;;;141.90;15.23;;;13.50;92.10;;;;;;5042033;28;20121;-55
2023/02/19 13:00:40;;;;;;;139.10;15.32;;;13.50;92.00;;;;;;5038474;28;20038;-56
2023/02/19 13:03:09;;;;;;;152.73;16.88;;;13.60;92.10;;;;;;5040024;28;20037;-55
2023/02/19 13:05:40;;;;;;;196.38;18.38;;;13.60;92.20;;;;;;5041834;28;20056;-55
2023/02/19 13:08:11;;;;;;;183.80;16.65;;;13.60;92.10;;;;;;5038569;28;20033;-55
2023/02/19 13:10:48;;;;;;;182.73;17.05;;;13.70;92.30;;;;;;5024987;28;20096;-55
2023/02/19 13:13:17;;;;;;;155.00;16.63;;;13.70;92.10;;;;;;5040080;28;20038;-55
2023/02/19 13:15:47;;;;;;;170.15;15.60;;;13.70;92.00;;;;;;5029576;28;20030;-55
2023/02/19 13:18:19;;;;;;;148.02;15.48;;;13.70;92.10;;;;;;5036919;28;20083;-55
2023/02/19 13:20:45;;;;;;;188.18;16.30;;;13.70;92.00;;;;;;5025055;28;20034;-55
2023/02/19 13:26:13;;;;;;;138.10;15.48;;;13.80;92.20;;;;;;5036685;28;20088;-55